createdAt,value
2018-02-01T00:02:14.456Z,67.55
2018-02-01T00:04:43.140Z,67.39
2018-02-01T00:07:11.826Z,66.83
2018-02-01T00:09:40.412Z,66.51
2018-02-01T00:12:09.140Z,66.00
2018-02-01T00:14:38.596Z,65.80
2018-02-01T00:17:07.226Z,66.36
2018-02-01T00:19:36.743Z,66.41
2018-02-01T00:22:06.190Z,66.18
2018-02-01T00:24:34.876Z,65.10
2018-02-01T00:27:03.821Z,64.99
2018-02-01T00:29:33.278Z,65.47
2018-02-01T00:32:01.964Z,66.46
2018-02-01T00:34:30.896Z,66.75
2018-02-01T00:37:00.367Z,67.43
2018-02-01T00:39:29.142Z,67.08
2018-02-01T00:41:58.102Z,66.57
2018-02-01T00:44:26.819Z,68.14
2018-02-01T00:46:55.506Z,66.74
2018-02-01T00:49:24.402Z,66.22
2018-02-01T00:51:53.023Z,66.77
2018-02-01T00:54:22.485Z,67.64
2018-02-01T00:56:51.459Z,67.12
2018-02-01T00:59:20.164Z,68.24
2018-02-01T01:01:48.849Z,67.93
2018-02-01T01:04:17.536Z,67.77
2018-02-01T01:06:46.221Z,68.63
2018-02-01T01:09:14.907Z,67.95
2018-02-01T01:11:43.902Z,67.39
2018-02-01T01:14:12.533Z,67.00
2018-02-01T01:16:41.888Z,66.54
2018-02-01T01:19:10.989Z,67.45
2018-02-01T01:21:39.607Z,67.97
2018-02-01T01:24:09.073Z,68.56
2018-02-01T01:26:37.858Z,67.88
2018-02-01T01:29:06.544Z,67.46
2018-02-01T01:31:35.132Z,68.08
2018-02-01T01:34:04.098Z,68.68
2018-02-01T01:36:32.810Z,68.77
2018-02-01T01:39:01.434Z,69.01
2018-02-01T01:41:30.900Z,68.98
2018-02-01T01:43:59.484Z,69.59
2018-02-01T01:46:28.112Z,69.79
2018-02-01T01:48:57.577Z,69.64
2018-02-01T01:51:26.252Z,71.48
2018-02-01T01:53:54.938Z,71.29
2018-02-01T01:56:23.734Z,70.67
2018-02-01T01:58:52.372Z,70.78
2018-02-01T02:01:21.818Z,70.46
2018-02-01T02:03:50.786Z,69.60
2018-02-01T02:06:19.498Z,69.59
2018-02-01T02:08:48.121Z,69.88
2018-02-01T02:11:17.588Z,69.83
2018-02-01T02:13:46.170Z,70.32
2018-02-01T02:16:14.799Z,70.35
2018-02-01T02:18:44.517Z,71.31
2018-02-01T02:21:13.247Z,70.93
2018-02-01T02:23:41.879Z,70.48
2018-02-01T02:26:11.395Z,70.64
2018-02-01T02:28:40.840Z,70.79
2018-02-01T02:31:09.428Z,70.65
2018-02-01T02:33:38.124Z,70.67
2018-02-01T02:36:06.899Z,70.71
2018-02-01T02:38:35.484Z,72.07
2018-02-01T02:41:04.177Z,72.18
2018-02-01T02:43:32.821Z,72.63
2018-02-01T02:46:01.544Z,72.24
2018-02-01T02:48:30.330Z,71.26
2018-02-01T02:50:59.014Z,72.14
2018-02-01T02:53:27.702Z,72.18
2018-02-01T02:55:56.495Z,72.07
2018-02-01T02:58:25.180Z,72.57
2018-02-01T03:00:53.872Z,71.71
2018-02-01T03:03:22.711Z,72.31
2018-02-01T03:05:51.436Z,72.51
2018-02-01T03:08:20.097Z,71.48
2018-02-01T03:10:49.064Z,71.85
2018-02-01T03:13:18.524Z,71.62
2018-02-01T03:15:47.146Z,72.53
2018-02-01T03:18:16.918Z,72.09
2018-02-01T03:20:45.560Z,72.20
2018-02-01T03:23:14.289Z,72.33
2018-02-01T03:25:43.020Z,72.92
2018-02-01T03:28:12.483Z,73.43
2018-02-01T03:30:41.103Z,73.00
2018-02-01T03:33:10.823Z,74.78
2018-02-01T03:35:40.274Z,73.68
2018-02-01T03:38:09.069Z,73.88
2018-02-01T03:40:37.802Z,73.73
2018-02-01T03:43:07.253Z,73.91
2018-02-01T03:45:35.887Z,74.69
2018-02-01T03:48:05.354Z,73.65
2018-02-01T03:50:34.018Z,73.26
2018-02-01T03:53:02.685Z,73.43
2018-02-01T03:55:31.604Z,74.04
2018-02-01T03:58:00.289Z,73.63
2018-02-01T04:00:28.942Z,74.11
2018-02-01T04:02:57.667Z,73.58
2018-02-01T04:05:26.348Z,73.13
2018-02-01T04:07:55.042Z,73.59
2018-02-01T04:10:24.136Z,73.11
2018-02-01T04:12:52.822Z,73.89
2018-02-01T04:15:21.502Z,73.18
2018-02-01T04:17:50.600Z,72.88
2018-02-01T04:20:19.285Z,71.99
2018-02-01T04:22:47.972Z,72.20
2018-02-01T04:25:16.865Z,72.68
2018-02-01T04:27:45.486Z,72.72
2018-02-01T04:30:14.846Z,73.57
2018-02-01T04:32:43.636Z,72.67
2018-02-01T04:35:13.087Z,73.55
2018-02-01T04:37:42.544Z,73.54
2018-02-01T04:40:11.475Z,72.88
2018-02-01T04:42:40.942Z,73.20
2018-02-01T04:45:09.682Z,73.14
2018-02-01T04:47:39.438Z,73.33
2018-02-01T04:50:08.125Z,73.06
2018-02-01T04:52:36.909Z,72.95
2018-02-01T04:55:05.603Z,72.41
2018-02-01T04:57:34.181Z,72.36
2018-02-01T05:00:02.966Z,71.81
2018-02-01T05:02:32.109Z,72.21
2018-02-01T05:05:01.567Z,73.27
2018-02-01T05:07:30.252Z,72.54
2018-02-01T05:09:59.238Z,72.80
2018-02-01T05:12:27.931Z,72.96
2018-02-01T05:14:56.573Z,72.71
2018-02-01T05:17:25.303Z,72.46
2018-02-01T05:19:53.933Z,72.85
2018-02-01T05:22:23.399Z,74.02
2018-02-01T05:24:52.184Z,73.68
2018-02-01T05:27:20.870Z,74.15
2018-02-01T05:29:49.555Z,73.36
2018-02-01T05:32:18.450Z,72.63
2018-02-01T05:34:47.135Z,73.85
2018-02-01T05:37:15.756Z,75.56
2018-02-01T05:39:45.225Z,73.83
2018-02-01T05:42:13.967Z,74.46
2018-02-01T05:44:42.635Z,74.39
2018-02-01T05:47:12.153Z,72.24
2018-02-01T05:49:41.500Z,71.70
2018-02-01T05:52:10.052Z,72.12
2018-02-01T05:54:38.970Z,72.17
2018-02-01T05:57:07.624Z,71.94
2018-02-01T05:59:36.292Z,72.04
2018-02-01T06:02:05.949Z,70.89
2018-02-01T06:04:34.601Z,70.98
2018-02-01T06:07:03.322Z,71.63
2018-02-01T06:09:32.116Z,71.51
2018-02-01T06:12:00.805Z,71.19
2018-02-01T06:14:29.494Z,69.32
2018-02-01T06:16:58.340Z,69.10
2018-02-01T06:19:26.960Z,67.66
2018-02-01T06:21:55.743Z,66.21
2018-02-01T06:24:24.593Z,63.94
2018-02-01T06:26:53.323Z,64.67
2018-02-01T06:29:22.009Z,63.51
2018-02-01T06:31:50.971Z,63.61
2018-02-01T06:34:19.688Z,61.80
2018-02-01T06:36:48.406Z,60.70
2018-02-01T06:39:17.975Z,60.34
2018-02-01T06:41:46.666Z,59.64
2018-02-01T06:44:15.353Z,57.62
2018-02-01T06:46:43.954Z,56.50
2018-02-01T06:49:12.527Z,57.01
2018-02-01T06:51:41.098Z,57.71
2018-02-01T06:54:09.808Z,58.21
2018-02-01T06:56:38.685Z,54.64
2018-02-01T06:59:07.370Z,53.43
2018-02-01T07:01:40.247Z,55.09
2018-02-01T07:04:09.349Z,52.09
2018-02-01T07:06:37.991Z,50.50
2018-02-01T07:09:06.720Z,50.87
2018-02-01T07:11:35.303Z,51.03
2018-02-01T07:14:03.885Z,50.93
2018-02-01T07:16:32.816Z,52.64
2018-02-01T07:19:02.277Z,49.33
2018-02-01T07:21:30.836Z,48.18
2018-02-01T07:24:00.054Z,50.04
2018-02-01T07:26:28.733Z,52.67
2018-02-01T07:28:57.326Z,52.18
2018-02-01T07:31:26.019Z,52.19
2018-02-01T07:33:54.691Z,52.51
2018-02-01T07:36:23.383Z,49.99
2018-02-01T07:38:53.260Z,49.72
2018-02-01T07:41:22.719Z,53.63
2018-02-01T07:43:51.441Z,50.32
2018-02-01T07:46:20.228Z,53.36
2018-02-01T07:48:49.026Z,52.27
2018-02-01T07:51:17.708Z,51.09
2018-02-01T07:53:46.458Z,51.41
2018-02-01T07:56:15.179Z,48.98
2018-02-01T07:58:43.843Z,48.37
2018-02-01T08:01:12.811Z,47.50
2018-02-01T08:03:41.544Z,48.41
2018-02-01T08:06:10.132Z,46.00
2018-02-01T08:08:38.864Z,49.67
2018-02-01T08:11:08.323Z,45.44
2018-02-01T08:13:36.899Z,44.54
2018-02-01T08:16:05.842Z,44.52
2018-02-01T08:18:35.302Z,44.43
2018-02-01T08:21:04.094Z,43.87
2018-02-01T08:23:33.694Z,45.42
2018-02-01T08:26:02.381Z,45.30
2018-02-01T08:28:30.960Z,44.80
2018-02-01T08:30:59.608Z,43.17
2018-02-01T08:33:28.189Z,42.47
2018-02-01T08:35:56.741Z,43.14
2018-02-01T08:38:25.344Z,41.75
2018-02-01T08:40:54.702Z,40.79
2018-02-01T08:43:23.284Z,42.89
2018-02-01T08:45:52.063Z,41.17
2018-02-01T08:48:20.624Z,40.09
2018-02-01T08:50:49.179Z,39.62
2018-02-01T08:53:18.640Z,40.06
2018-02-01T08:55:47.189Z,40.24
2018-02-01T08:58:15.789Z,41.40
2018-02-01T09:00:44.406Z,42.53
2018-02-01T09:03:13.179Z,40.57
2018-02-01T09:05:41.865Z,41.95
2018-02-01T09:08:10.858Z,40.82
2018-02-01T09:10:39.408Z,39.98
2018-02-01T09:13:07.972Z,39.53
2018-02-01T09:15:37.627Z,42.92
2018-02-01T09:18:06.185Z,42.33
2018-02-01T09:20:34.739Z,40.42
2018-02-01T09:23:04.147Z,40.74
2018-02-01T09:25:32.728Z,39.55
2018-02-01T09:28:01.280Z,38.33
2018-02-01T09:30:30.196Z,38.48
2018-02-01T09:32:59.524Z,38.62
2018-02-01T09:35:28.085Z,39.65
2018-02-01T09:37:57.644Z,38.43
2018-02-01T09:40:26.206Z,40.64
2018-02-01T09:42:54.763Z,41.10
2018-02-01T09:45:23.491Z,41.08
2018-02-01T09:47:52.056Z,39.78
2018-02-01T09:50:20.622Z,39.49
2018-02-01T09:52:49.241Z,39.36
2018-02-01T09:55:18.618Z,39.80
2018-02-01T09:57:47.224Z,38.00
2018-02-01T10:00:16.020Z,38.45
2018-02-01T10:02:44.580Z,38.45
2018-02-01T10:05:13.144Z,38.55
2018-02-01T10:07:42.512Z,38.57
2018-02-01T10:10:11.070Z,39.56
2018-02-01T10:12:39.629Z,37.30
2018-02-01T10:15:08.547Z,38.20
2018-02-01T10:17:37.146Z,38.39
2018-02-01T10:20:05.704Z,37.86
2018-02-01T10:22:34.400Z,37.18
2018-02-01T10:25:02.975Z,37.05
2018-02-01T10:27:31.525Z,34.99
2018-02-01T10:30:00.452Z,35.73
2018-02-01T10:32:29.061Z,34.93
2018-02-01T10:34:58.388Z,35.71
2018-02-01T10:37:26.995Z,34.59
2018-02-01T10:39:55.555Z,33.57
2018-02-01T10:42:24.936Z,35.89
2018-02-01T10:44:54.507Z,37.85
2018-02-01T10:47:23.082Z,36.95
2018-02-01T10:49:51.651Z,36.67
2018-02-01T10:52:20.470Z,33.93
2018-02-01T10:54:49.048Z,33.76
2018-02-01T10:57:18.368Z,33.71
2018-02-01T10:59:46.977Z,32.92
2018-02-01T11:02:16.381Z,34.01
2018-02-01T11:04:45.703Z,33.06
2018-02-01T11:07:14.318Z,32.77
2018-02-01T11:09:42.880Z,33.69
2018-02-01T11:12:11.443Z,32.38
2018-02-01T11:14:40.080Z,33.23
2018-02-01T11:17:08.648Z,35.53
2018-02-01T11:19:37.296Z,34.64
2018-02-01T11:22:05.996Z,35.32
2018-02-01T11:24:34.560Z,33.33
2018-02-01T11:27:03.115Z,33.27
2018-02-01T11:29:31.720Z,32.25
2018-02-01T11:32:01.041Z,34.32
2018-02-01T11:34:30.371Z,33.40
2018-02-01T11:36:58.999Z,32.31
2018-02-01T11:39:28.320Z,34.13
2018-02-01T11:41:56.882Z,31.14
2018-02-01T11:44:26.453Z,32.88
2018-02-01T11:46:55.028Z,32.53
2018-02-01T11:49:23.602Z,31.50
2018-02-01T11:51:52.200Z,31.00
2018-02-01T11:54:20.760Z,32.49
2018-02-01T11:56:49.320Z,33.26
2018-02-01T11:59:17.948Z,34.13
2018-02-01T12:01:46.540Z,33.02
2018-02-01T12:04:16.676Z,34.12
2018-02-01T12:06:45.535Z,33.91
2018-02-01T12:09:14.093Z,35.54
2018-02-01T12:11:42.669Z,34.75
2018-02-01T12:14:11.497Z,33.27
2018-02-01T12:16:40.054Z,31.83
2018-02-01T12:19:08.621Z,31.64
2018-02-01T12:21:37.241Z,31.79
2018-02-01T12:24:05.801Z,30.47
2018-02-01T12:26:34.375Z,32.33
2018-02-01T12:29:02.998Z,30.32
2018-02-01T12:31:31.591Z,31.32
2018-02-01T12:34:00.157Z,34.05
2018-02-01T12:36:28.764Z,33.75
2018-02-01T12:38:57.324Z,32.87
2018-02-01T12:41:25.876Z,32.52
2018-02-01T12:43:54.912Z,30.85
2018-02-01T12:46:23.531Z,30.94
2018-02-01T12:48:52.855Z,30.14
2018-02-01T12:51:21.678Z,30.84
2018-02-01T12:53:50.232Z,32.51
2018-02-01T12:56:18.793Z,31.34
2018-02-01T12:58:48.352Z,30.53
2018-02-01T13:01:16.917Z,30.83
2018-02-01T13:03:45.488Z,32.99
2018-02-01T13:06:14.305Z,34.72
2018-02-01T13:08:42.872Z,33.38
2018-02-01T13:11:11.440Z,32.63
2018-02-01T13:13:40.158Z,30.10
2018-02-01T13:16:08.717Z,30.87
2018-02-01T13:18:37.276Z,30.40
2018-02-01T13:21:05.895Z,30.34
2018-02-01T13:23:34.449Z,29.24
2018-02-01T13:26:03.004Z,30.04
2018-02-01T13:28:32.376Z,32.10
2018-02-01T13:31:00.966Z,31.13
2018-02-01T13:33:29.545Z,31.38
2018-02-01T13:35:58.431Z,32.09
2018-02-01T13:38:27.756Z,31.15
2018-02-01T13:40:56.316Z,30.77
2018-02-01T13:43:25.097Z,32.83
2018-02-01T13:45:53.672Z,32.95
2018-02-01T13:48:22.230Z,33.13
2018-02-01T13:50:50.832Z,33.21
2018-02-01T13:53:19.400Z,34.18
2018-02-01T13:55:47.959Z,32.83
2018-02-01T13:58:17.332Z,33.38
2018-02-01T14:00:45.906Z,33.21
2018-02-01T14:03:14.472Z,35.36
2018-02-01T14:05:43.367Z,35.30
2018-02-01T14:08:11.953Z,34.22
2018-02-01T14:10:40.505Z,33.87
2018-02-01T14:13:09.129Z,35.61
2018-02-01T14:15:37.688Z,35.39
2018-02-01T14:18:06.253Z,35.70
2018-02-01T14:20:34.884Z,34.94
2018-02-01T14:23:03.448Z,36.35
2018-02-01T14:25:32.036Z,37.16
2018-02-01T14:28:01.069Z,36.53
2018-02-01T14:30:30.405Z,37.79
2018-02-01T14:32:58.964Z,36.34
2018-02-01T14:35:28.725Z,36.49
2018-02-01T14:37:57.282Z,35.86
2018-02-01T14:40:25.847Z,36.74
2018-02-01T14:42:54.464Z,36.80
2018-02-01T14:45:23.024Z,37.75
2018-02-01T14:47:51.585Z,37.59
2018-02-01T14:50:20.959Z,38.11
2018-02-01T14:52:49.533Z,38.60
2018-02-01T14:55:18.084Z,38.39
2018-02-01T14:57:47.006Z,39.07
2018-02-01T15:00:15.581Z,39.66
2018-02-01T15:02:44.158Z,40.65
2018-02-01T15:05:13.165Z,42.36
2018-02-01T15:07:41.738Z,43.15
2018-02-01T15:10:10.296Z,43.57
2018-02-01T15:12:38.930Z,44.15
2018-02-01T15:15:07.493Z,44.49
2018-02-01T15:17:36.052Z,44.98
2018-02-01T15:20:04.661Z,45.73
2018-02-01T15:22:33.212Z,46.75
2018-02-01T15:25:01.782Z,47.32
2018-02-01T15:27:31.151Z,48.32
2018-02-01T15:29:59.712Z,49.40
2018-02-01T15:32:28.272Z,49.18
2018-02-01T15:34:56.882Z,49.99
2018-02-01T15:37:25.450Z,50.65
2018-02-01T15:39:54.776Z,50.74
2018-02-01T15:42:23.557Z,50.68
2018-02-01T15:44:52.121Z,51.31
2018-02-01T15:47:20.684Z,51.51
2018-02-01T15:49:49.614Z,53.31
2018-02-01T15:52:18.184Z,53.81
2018-02-01T15:54:46.751Z,54.98
2018-02-01T15:57:15.569Z,55.34
2018-02-01T15:59:44.123Z,54.99
2018-02-01T16:02:12.707Z,55.56
2018-02-01T16:04:41.641Z,54.81
2018-02-01T16:07:10.206Z,55.37
2018-02-01T16:09:38.773Z,55.99
2018-02-01T16:12:07.377Z,56.75
2018-02-01T16:14:35.949Z,57.19
2018-02-01T16:17:05.273Z,57.57
2018-02-01T16:19:34.228Z,58.29
2018-02-01T16:22:02.877Z,58.57
2018-02-01T16:24:31.485Z,58.57
2018-02-01T16:27:00.294Z,60.45
2018-02-01T16:29:28.897Z,60.06
2018-02-01T16:31:57.467Z,60.03
2018-02-01T16:34:28.709Z,60.10
2018-02-01T16:36:57.306Z,60.47
2018-02-01T16:39:25.879Z,60.59
2018-02-01T16:41:54.875Z,60.97
2018-02-01T16:44:23.428Z,61.32
2018-02-01T16:46:51.988Z,61.43
2018-02-01T16:49:20.826Z,61.11
2018-02-01T16:51:49.392Z,61.41
2018-02-01T16:54:17.951Z,61.35
2018-02-01T16:56:46.556Z,61.86
2018-02-01T16:59:15.111Z,62.36
2018-02-01T17:01:43.669Z,62.11
2018-02-01T17:04:12.281Z,62.56
2018-02-01T17:06:40.833Z,63.00
2018-02-01T17:09:10.324Z,63.48
2018-02-01T17:11:39.790Z,64.00
2018-02-01T17:14:08.370Z,63.81
2018-02-01T17:16:36.925Z,63.45
2018-02-01T17:19:05.533Z,64.29
2018-02-01T17:21:34.084Z,63.54
2018-02-01T17:24:02.642Z,63.13
2018-02-01T17:26:32.206Z,63.09
2018-02-01T17:29:00.750Z,65.37
2018-02-01T17:31:29.308Z,65.40
2018-02-01T17:33:58.832Z,64.97
2018-02-01T17:36:27.393Z,64.37
2018-02-01T17:38:55.940Z,64.15
2018-02-01T17:41:24.544Z,63.90
2018-02-01T17:43:53.104Z,63.85
2018-02-01T17:46:21.654Z,63.80
2018-02-01T17:48:50.253Z,63.86
2018-02-01T17:51:18.810Z,64.33
2018-02-01T17:53:47.496Z,64.29
2018-02-01T17:56:16.124Z,64.21
2018-02-01T17:58:44.685Z,64.63
2018-02-01T18:01:14.013Z,64.45
2018-02-01T18:03:42.708Z,63.60
2018-02-01T18:06:11.256Z,63.31
2018-02-01T18:08:39.805Z,63.78
2018-02-01T18:11:09.260Z,64.75
2018-02-01T18:13:37.813Z,64.80
2018-02-01T18:16:06.376Z,64.78
2018-02-01T18:18:36.182Z,64.96
2018-02-01T18:21:04.748Z,65.20
2018-02-01T18:23:33.689Z,66.77
2018-02-01T18:26:02.499Z,68.13
2018-02-01T18:28:31.049Z,68.42
2018-02-01T18:30:59.628Z,68.28
2018-02-01T18:33:28.452Z,68.58
2018-02-01T18:35:56.997Z,68.48
2018-02-01T18:38:25.550Z,68.59
2018-02-01T18:40:54.142Z,67.87
2018-02-01T18:43:22.684Z,67.88
2018-02-01T18:45:51.240Z,68.08
2018-02-01T18:48:19.844Z,68.43
2018-02-01T18:50:48.409Z,68.11
2018-02-01T18:53:16.985Z,67.87
2018-02-01T18:55:45.811Z,67.43
2018-02-01T18:58:14.364Z,66.99
2018-02-01T19:00:42.953Z,67.10
2018-02-01T19:03:11.565Z,66.97
2018-02-01T19:05:40.124Z,66.41
2018-02-01T19:08:08.689Z,66.24
2018-02-01T19:10:37.284Z,66.26
2018-02-01T19:13:05.848Z,66.04
2018-02-01T19:15:35.235Z,66.13
2018-02-01T19:18:04.744Z,65.84
2018-02-01T19:20:34.072Z,65.94
2018-02-01T19:23:02.619Z,65.67
2018-02-01T19:25:31.987Z,65.54
2018-02-01T19:28:01.521Z,65.51
2018-02-01T19:30:30.920Z,65.44
2018-02-01T19:32:59.524Z,65.25
2018-02-01T19:35:28.858Z,64.81
2018-02-01T19:37:57.465Z,64.60
2018-02-01T19:40:26.168Z,64.27
2018-02-01T19:42:54.737Z,64.74
2018-02-01T19:45:23.293Z,64.74
2018-02-01T19:47:52.315Z,65.01
2018-02-01T19:50:20.868Z,64.93
2018-02-01T19:52:49.426Z,64.83
2018-02-01T19:55:18.787Z,66.60
2018-02-01T19:57:47.809Z,67.86
2018-02-01T20:00:17.137Z,69.09
2018-02-01T20:02:45.736Z,68.43
2018-02-01T20:05:14.283Z,69.12
2018-02-01T20:07:42.848Z,70.30
2018-02-01T20:10:12.600Z,69.80
2018-02-01T20:12:41.146Z,69.93
2018-02-01T20:15:10.464Z,70.61
2018-02-01T20:17:39.117Z,70.55
2018-02-01T20:20:08.506Z,70.15
2018-02-01T20:22:37.079Z,69.65
2018-02-01T20:25:05.960Z,69.95
2018-02-01T20:27:34.520Z,69.47
2018-02-01T20:30:03.098Z,69.43
2018-02-01T20:32:31.907Z,68.68
2018-02-01T20:35:00.456Z,68.65
2018-02-01T20:37:29.000Z,68.96
2018-02-01T20:39:57.949Z,69.64
2018-02-01T20:42:26.496Z,69.54
2018-02-01T20:44:55.816Z,69.93
2018-02-01T20:47:24.412Z,71.11
2018-02-01T20:49:53.041Z,70.92
2018-02-01T20:52:21.616Z,70.64
2018-02-01T20:54:50.583Z,71.42
2018-02-01T20:57:19.196Z,70.21
2018-02-01T20:59:47.836Z,69.64
2018-02-01T21:02:16.548Z,70.12
2018-02-01T21:04:45.097Z,70.28
2018-02-01T21:07:13.704Z,70.09
2018-02-01T21:09:42.306Z,69.81
2018-02-01T21:12:10.885Z,70.39
2018-02-01T21:14:39.493Z,70.84
2018-02-01T21:17:08.356Z,71.11
2018-02-01T21:19:36.924Z,71.37
2018-02-01T21:22:05.508Z,71.48
2018-02-01T21:24:34.388Z,72.16
2018-02-01T21:27:03.044Z,73.23
2018-02-01T21:29:32.498Z,73.98
2018-02-01T21:32:01.205Z,74.83
2018-02-01T21:34:29.759Z,73.92
2018-02-01T21:36:58.309Z,73.68
2018-02-01T21:39:27.856Z,73.30
2018-02-01T21:41:56.408Z,73.59
2018-02-01T21:44:24.968Z,72.85
2018-02-01T21:46:54.364Z,72.30
2018-02-01T21:49:23.828Z,71.81
2018-02-01T21:51:53.179Z,71.78
2018-02-01T21:54:22.948Z,71.82
2018-02-01T21:56:51.512Z,73.25
2018-02-01T21:59:20.069Z,72.71
2018-02-01T22:01:48.664Z,71.49
2018-02-01T22:04:17.221Z,70.98
2018-02-01T22:06:46.844Z,71.07
2018-02-01T22:09:15.673Z,70.30
2018-02-01T22:11:44.224Z,70.51
2018-02-01T22:14:12.787Z,70.76
2018-02-01T22:16:42.152Z,70.70
2018-02-01T22:19:10.700Z,70.88
2018-02-01T22:21:39.252Z,71.86
2018-02-01T22:24:08.829Z,70.85
2018-02-01T22:26:37.396Z,70.36
2018-02-01T22:29:05.945Z,69.60
2018-02-01T22:31:34.549Z,69.35
2018-02-01T22:34:03.100Z,68.78
2018-02-01T22:36:32.412Z,69.38
2018-02-01T22:39:01.438Z,68.21
2018-02-01T22:41:29.988Z,68.99
2018-02-01T22:43:58.542Z,68.73
2018-02-01T22:46:27.947Z,67.95
2018-02-01T22:48:57.272Z,68.52
2018-02-01T22:51:25.824Z,67.95
2018-02-01T22:53:55.298Z,68.11
2018-02-01T22:56:23.864Z,67.67
2018-02-01T22:58:52.421Z,67.11
2018-02-01T23:01:21.049Z,66.67
2018-02-01T23:03:49.624Z,67.05
2018-02-01T23:06:18.180Z,67.70
2018-02-01T23:08:46.794Z,67.47
2018-02-01T23:11:16.168Z,67.72
2018-02-01T23:13:44.737Z,68.02
2018-02-01T23:16:14.097Z,68.95
2018-02-01T23:18:42.653Z,69.22
2018-02-01T23:21:11.204Z,70.22
2018-02-01T23:23:40.032Z,70.39
2018-02-01T23:26:08.582Z,70.59
2018-02-01T23:28:37.148Z,69.73
2018-02-01T23:31:06.806Z,70.00
2018-02-01T23:33:35.356Z,69.95
2018-02-01T23:36:03.903Z,70.81
2018-02-01T23:38:32.760Z,70.62
2018-02-01T23:41:01.304Z,70.60
2018-02-01T23:43:29.847Z,70.38
2018-02-01T23:45:58.528Z,70.96
2018-02-01T23:48:27.835Z,71.43
2018-02-01T23:50:56.393Z,71.65
2018-02-01T23:53:25.000Z,70.57
2018-02-01T23:55:53.561Z,70.25
2018-02-01T23:58:22.881Z,70.18
